createdAt,value
2023-04-01T00:01:50.078Z,95597.44
2023-04-01T00:04:16.411Z,95604.38
2023-04-01T00:06:42.736Z,95595.00
2023-04-01T00:09:09.030Z,95605.56
2023-04-01T00:11:35.322Z,95595.00
2023-04-01T00:14:01.636Z,95600.53
2023-04-01T00:16:27.956Z,95610.06
2023-04-01T00:18:54.266Z,95610.06
2023-04-01T00:21:20.881Z,95614.75
2023-04-01T00:23:47.176Z,95606.34
2023-04-01T00:26:13.667Z,95611.09
2023-04-01T00:28:40.048Z,95600.19
2023-04-01T00:31:06.351Z,95592.16
2023-04-01T00:33:32.655Z,95590.31
2023-04-01T00:35:59.020Z,95599.31
2023-04-01T00:38:25.374Z,95584.78
2023-04-01T00:40:51.689Z,95589.09
2023-04-01T00:43:18.008Z,95591.16
2023-04-01T00:45:44.309Z,95593.72
2023-04-01T00:48:10.645Z,95597.75
2023-04-01T00:50:37.013Z,95596.72
2023-04-01T00:53:03.320Z,95601.38
2023-04-01T00:55:29.729Z,95607.63
2023-04-01T00:57:56.288Z,95608.13
2023-04-01T01:00:22.590Z,95612.22
2023-04-01T01:02:48.939Z,95609.72
2023-04-01T01:05:15.322Z,95606.91
2023-04-01T01:07:41.624Z,95605.72
2023-04-01T01:10:07.948Z,95602.06
2023-04-01T01:12:34.332Z,95591.88
2023-04-01T01:15:00.663Z,95600.19
2023-04-01T01:17:27.017Z,95604.94
2023-04-01T01:19:53.368Z,95612.97
2023-04-01T01:22:19.662Z,95610.22
2023-04-01T01:24:45.961Z,95614.03
2023-04-01T01:27:12.353Z,95622.00
2023-04-01T01:29:38.658Z,95629.47
2023-04-01T01:32:04.945Z,95620.78
2023-04-01T01:34:31.273Z,95616.97
2023-04-01T01:36:57.566Z,95620.25
2023-04-01T01:39:23.859Z,95613.34
2023-04-01T01:41:50.173Z,95630.91
2023-04-01T01:44:16.462Z,95631.13
2023-04-01T01:46:42.765Z,95624.97
2023-04-01T01:49:09.079Z,95609.22
2023-04-01T01:51:35.384Z,95603.75
2023-04-01T01:54:01.686Z,95600.56
2023-04-01T01:56:28.003Z,95592.88
2023-04-01T01:58:54.301Z,95596.41
2023-04-01T02:01:20.629Z,95592.63
2023-04-01T02:03:46.971Z,95596.53
2023-04-01T02:06:13.278Z,95595.56
2023-04-01T02:08:39.571Z,95590.72
2023-04-01T02:11:05.900Z,95586.03
2023-04-01T02:13:32.192Z,95587.44
2023-04-01T02:15:58.545Z,95584.94
2023-04-01T02:18:24.886Z,95588.84
2023-04-01T02:20:51.191Z,95584.38
2023-04-01T02:23:17.509Z,95588.16
2023-04-01T02:25:43.847Z,95579.78
2023-04-01T02:28:10.259Z,95588.81
2023-04-01T02:30:36.551Z,95588.59
2023-04-01T02:33:02.948Z,95588.16
2023-04-01T02:35:29.283Z,95578.38
2023-04-01T02:37:55.585Z,95577.91
2023-04-01T02:40:21.925Z,95583.59
2023-04-01T02:42:48.238Z,95591.78
2023-04-01T02:45:14.550Z,95582.47
2023-04-01T02:47:40.920Z,95576.94
2023-04-01T02:50:07.291Z,95578.78
2023-04-01T02:52:33.590Z,95569.47
2023-04-01T02:54:59.911Z,95571.53
2023-04-01T02:57:26.291Z,95572.56
2023-04-01T02:59:52.648Z,95570.31
2023-04-01T03:02:19.272Z,95564.00
2023-04-01T03:04:45.601Z,95568.47
2023-04-01T03:07:11.902Z,95567.84
2023-04-01T03:09:38.233Z,95568.69
2023-04-01T03:12:04.535Z,95570.53
2023-04-01T03:14:30.836Z,95580.16
2023-04-01T03:16:57.256Z,95583.84
2023-04-01T03:19:23.574Z,95580.16
2023-04-01T03:21:49.876Z,95567.03
2023-04-01T03:24:16.198Z,95568.09
2023-04-01T03:26:42.509Z,95572.19
2023-04-01T03:29:08.811Z,95569.78
2023-04-01T03:31:35.165Z,95569.41
2023-04-01T03:34:01.477Z,95570.69
2023-04-01T03:36:27.791Z,95574.75
2023-04-01T03:38:54.218Z,95569.38
2023-04-01T03:41:20.517Z,95561.84
2023-04-01T03:43:46.817Z,95568.44
2023-04-01T03:46:13.190Z,95580.22
2023-04-01T03:48:39.514Z,95573.06
2023-04-01T03:51:05.808Z,95573.91
2023-04-01T03:53:32.138Z,95552.81
2023-04-01T03:55:58.436Z,95565.97
2023-04-01T03:58:24.739Z,95559.97
2023-04-01T04:00:51.082Z,95568.78
2023-04-01T04:03:17.478Z,95558.22
2023-04-01T04:05:43.945Z,95561.69
2023-04-01T04:08:10.262Z,95555.81
2023-04-01T04:10:36.572Z,95554.16
2023-04-01T04:13:02.868Z,95560.47
2023-04-01T04:15:29.210Z,95556.09
2023-04-01T04:17:55.578Z,95544.63
2023-04-01T04:20:21.923Z,95544.88
2023-04-01T04:22:48.245Z,95541.28
2023-04-01T04:25:14.544Z,95529.53
2023-04-01T04:27:40.853Z,95527.63
2023-04-01T04:30:07.180Z,95531.59
2023-04-01T04:32:33.516Z,95549.75
2023-04-01T04:34:59.820Z,95542.03
2023-04-01T04:37:26.135Z,95544.63
2023-04-01T04:39:52.439Z,95546.06
2023-04-01T04:42:18.729Z,95548.38
2023-04-01T04:44:45.093Z,95553.50
2023-04-01T04:47:11.455Z,95554.56
2023-04-01T04:49:37.778Z,95557.72
2023-04-01T04:52:04.084Z,95546.06
2023-04-01T04:54:30.373Z,95558.22
2023-04-01T04:56:56.741Z,95552.19
2023-04-01T04:59:23.098Z,95546.41
2023-04-01T05:01:49.480Z,95557.13
2023-04-01T05:04:15.802Z,95559.22
2023-04-01T05:06:42.111Z,95548.94
2023-04-01T05:09:08.406Z,95558.34
2023-04-01T05:11:34.704Z,95551.28
2023-04-01T05:14:01.032Z,95559.22
2023-04-01T05:16:27.395Z,95554.25
2023-04-01T05:18:53.708Z,95561.81
2023-04-01T05:21:20.026Z,95554.59
2023-04-01T05:23:46.314Z,95559.97
2023-04-01T05:26:12.619Z,95561.13
2023-04-01T05:28:38.943Z,95575.31
2023-04-01T05:31:05.242Z,95560.81
2023-04-01T05:33:31.565Z,95563.09
2023-04-01T05:35:57.977Z,95563.88
2023-04-01T05:38:29.024Z,95572.28
2023-04-01T05:40:55.324Z,95564.13
2023-04-01T05:43:21.639Z,95575.28
2023-04-01T05:45:47.948Z,95558.97
2023-04-01T05:48:14.242Z,95571.88
2023-04-01T05:50:41.799Z,95564.25
2023-04-01T05:53:08.080Z,95565.31
2023-04-01T05:55:34.554Z,95560.88
2023-04-01T05:58:01.098Z,95571.88
2023-04-01T06:00:27.389Z,95574.56
2023-04-01T06:02:53.756Z,95581.91
2023-04-01T06:05:20.165Z,95583.97
2023-04-01T06:07:46.449Z,95570.13
2023-04-01T06:10:12.781Z,95574.56
2023-04-01T06:12:39.107Z,95585.16
2023-04-01T06:15:05.400Z,95580.06
2023-04-01T06:17:33.275Z,95571.88
2023-04-01T06:19:59.602Z,95574.09
2023-04-01T06:22:25.914Z,95566.91
2023-04-01T06:24:52.210Z,95571.56
2023-04-01T06:27:18.520Z,95577.34
2023-04-01T06:29:44.834Z,95561.47
2023-04-01T06:32:11.429Z,95570.25
2023-04-01T06:34:37.833Z,95570.75
2023-04-01T06:37:04.156Z,95558.63
2023-04-01T06:39:30.453Z,95579.94
2023-04-01T06:41:56.766Z,95582.16
2023-04-01T06:44:23.077Z,95578.75
2023-04-01T06:46:49.369Z,95587.81
2023-04-01T06:49:15.689Z,95591.28
2023-04-01T06:51:42.007Z,95602.41
2023-04-01T06:54:08.298Z,95586.25
2023-04-01T06:56:34.651Z,95591.81
2023-04-01T06:59:00.973Z,95589.88
2023-04-01T07:01:27.298Z,95594.91
2023-04-01T07:03:53.617Z,95603.00
2023-04-01T07:06:19.913Z,95602.50
2023-04-01T07:08:46.321Z,95602.53
2023-04-01T07:11:12.646Z,95597.97
2023-04-01T07:13:38.939Z,95599.97
2023-04-01T07:16:05.231Z,95607.75
2023-04-01T07:18:31.534Z,95615.22
2023-04-01T07:20:57.823Z,95608.69
2023-04-01T07:23:24.129Z,95617.75
2023-04-01T07:25:50.447Z,95607.53
2023-04-01T07:28:16.740Z,95612.47
2023-04-01T07:30:43.061Z,95624.13
2023-04-01T07:33:09.435Z,95629.28
2023-04-01T07:35:35.889Z,95615.13
2023-04-01T07:38:02.172Z,95613.59
2023-04-01T07:40:28.496Z,95616.78
2023-04-01T07:42:54.778Z,95623.63
2023-04-01T07:45:21.066Z,95618.59
2023-04-01T07:47:47.419Z,95621.41
2023-04-01T07:50:13.749Z,95607.41
2023-04-01T07:52:40.052Z,95612.81
2023-04-01T07:55:06.371Z,95622.69
2023-04-01T07:57:32.717Z,95603.19
2023-04-01T07:59:59.053Z,95613.91
2023-04-01T08:02:25.447Z,95626.53
2023-04-01T08:04:51.843Z,95627.63
2023-04-01T08:07:18.223Z,95635.72
2023-04-01T08:09:44.569Z,95638.09
2023-04-01T08:12:10.881Z,95652.81
2023-04-01T08:14:37.171Z,95648.38
2023-04-01T08:17:03.487Z,95644.34
2023-04-01T08:19:29.765Z,95650.47
2023-04-01T08:21:56.095Z,95646.25
2023-04-01T08:24:22.881Z,95641.25
2023-04-01T08:26:49.240Z,95634.00
2023-04-01T08:29:15.538Z,95635.91
2023-04-01T08:31:41.928Z,95643.56
2023-04-01T08:34:08.289Z,95649.31
2023-04-01T08:36:34.656Z,95635.56
2023-04-01T08:39:00.993Z,95649.31
2023-04-01T08:41:27.328Z,95651.19
2023-04-01T08:43:53.625Z,95645.94
2023-04-01T08:46:19.990Z,95645.94
2023-04-01T08:48:46.330Z,95643.19
2023-04-01T08:51:12.635Z,95642.75
2023-04-01T08:53:38.973Z,95631.91
2023-04-01T08:56:05.292Z,95626.66
2023-04-01T08:58:31.588Z,95627.25
2023-04-01T09:00:57.903Z,95636.31
2023-04-01T09:03:24.243Z,95641.88
2023-04-01T09:05:50.678Z,95628.78
2023-04-01T09:08:17.119Z,95633.22
2023-04-01T09:10:43.489Z,95643.44
2023-04-01T09:13:09.798Z,95641.66
2023-04-01T09:15:36.426Z,95638.81
2023-04-01T09:18:02.993Z,95651.78
2023-04-01T09:20:29.289Z,95662.19
2023-04-01T09:22:55.623Z,95659.44
2023-04-01T09:25:22.022Z,95665.88
2023-04-01T09:27:48.311Z,95660.91
2023-04-01T09:30:14.640Z,95661.47
2023-04-01T09:32:41.005Z,95652.13
2023-04-01T09:35:07.350Z,95658.66
2023-04-01T09:37:33.686Z,95659.25
2023-04-01T09:39:59.979Z,95664.69
2023-04-01T09:42:26.288Z,95639.16
2023-04-01T09:44:52.599Z,95645.06
2023-04-01T09:47:19.038Z,95634.31
2023-04-01T09:49:45.336Z,95632.63
2023-04-01T09:52:11.651Z,95645.19
2023-04-01T09:54:37.941Z,95656.31
2023-04-01T09:57:04.244Z,95650.00
2023-04-01T09:59:30.580Z,95638.19
2023-04-01T10:01:56.941Z,95648.69
2023-04-01T10:04:23.291Z,95646.91
2023-04-01T10:06:49.610Z,95638.53
2023-04-01T10:09:15.907Z,95642.72
2023-04-01T10:11:42.207Z,95643.59
2023-04-01T10:14:08.556Z,95652.19
2023-04-01T10:16:34.880Z,95659.34
2023-04-01T10:19:01.208Z,95654.84
2023-04-01T10:21:27.511Z,95662.81
2023-04-01T10:23:53.802Z,95663.88
2023-04-01T10:26:20.099Z,95657.00
2023-04-01T10:28:46.397Z,95661.47
2023-04-01T10:31:12.682Z,95670.38
2023-04-01T10:33:38.997Z,95649.06
2023-04-01T10:36:05.349Z,95641.47
2023-04-01T10:38:31.659Z,95624.19
2023-04-01T10:40:57.949Z,95635.28
2023-04-01T10:43:24.255Z,95641.16
2023-04-01T10:45:50.570Z,95621.13
2023-04-01T10:48:16.878Z,95641.16
2023-04-01T10:50:43.191Z,95636.16
2023-04-01T10:53:09.469Z,95647.03
2023-04-01T10:55:36.048Z,95642.13
2023-04-01T10:58:02.537Z,95635.06
2023-04-01T11:00:28.826Z,95627.59
2023-04-01T11:02:55.165Z,95627.50
2023-04-01T11:05:21.537Z,95626.81
2023-04-01T11:07:55.877Z,95615.28
2023-04-01T11:10:29.376Z,95604.66
2023-04-01T11:12:55.665Z,95608.63
2023-04-01T11:15:21.997Z,95604.75
2023-04-01T11:17:48.467Z,95603.44
2023-04-01T11:20:14.802Z,95613.09
2023-04-01T11:22:41.168Z,95613.44
2023-04-01T11:25:07.475Z,95615.63
2023-04-01T11:27:33.766Z,95617.25
2023-04-01T11:30:00.799Z,95613.53
2023-04-01T11:32:27.340Z,95612.53
2023-04-01T11:34:53.665Z,95617.75
2023-04-01T11:37:19.949Z,95613.00
2023-04-01T11:39:46.297Z,95605.97
2023-04-01T11:42:12.994Z,95597.94
2023-04-01T11:44:39.284Z,95593.00
2023-04-01T11:47:05.627Z,95584.63
2023-04-01T11:49:31.920Z,95586.16
2023-04-01T11:51:58.194Z,95582.41
2023-04-01T11:54:24.502Z,95581.91
2023-04-01T11:56:50.832Z,95575.81
2023-04-01T11:59:17.171Z,95568.69
2023-04-01T12:01:43.541Z,95573.38
2023-04-01T12:04:10.035Z,95570.47
2023-04-01T12:06:36.440Z,95565.16
2023-04-01T12:09:03.584Z,95583.38
2023-04-01T12:11:29.873Z,95598.13
2023-04-01T12:13:56.167Z,95607.44
2023-04-01T12:16:22.539Z,95628.31
2023-04-01T12:18:48.864Z,95632.75
2023-04-01T12:21:15.165Z,95630.53
2023-04-01T12:23:41.516Z,95620.56
2023-04-01T12:26:07.834Z,95609.31
2023-04-01T12:28:34.129Z,95592.63
2023-04-01T12:31:00.450Z,95584.97
2023-04-01T12:33:26.739Z,95580.38
2023-04-01T12:35:53.068Z,95577.56
2023-04-01T12:38:21.089Z,95557.13
2023-04-01T12:40:47.994Z,95555.78
2023-04-01T12:43:14.289Z,95555.44
2023-04-01T12:45:40.632Z,95540.44
2023-04-01T12:48:07.033Z,95542.44
2023-04-01T12:50:33.345Z,95532.44
2023-04-01T12:52:59.660Z,95539.97
2023-04-01T12:55:25.950Z,95536.44
2023-04-01T12:57:52.227Z,95536.75
2023-04-01T13:00:18.538Z,95537.84
2023-04-01T13:02:44.868Z,95541.84
2023-04-01T13:05:11.189Z,95544.19
2023-04-01T13:07:37.528Z,95548.78
2023-04-01T13:10:03.838Z,95532.13
2023-04-01T13:12:30.152Z,95519.06
2023-04-01T13:14:56.474Z,95515.41
2023-04-01T13:17:22.817Z,95512.84
2023-04-01T13:20:02.100Z,95505.06
2023-04-01T13:22:31.646Z,95504.63
2023-04-01T13:24:57.935Z,95514.19
2023-04-01T13:27:24.219Z,95521.53
2023-04-01T13:29:50.565Z,95514.19
2023-04-01T13:32:16.861Z,95505.16
2023-04-01T13:34:43.152Z,95506.44
2023-04-01T13:37:09.466Z,95501.66
2023-04-01T13:39:35.757Z,95506.59
2023-04-01T13:42:02.058Z,95492.13
2023-04-01T13:44:28.366Z,95493.22
2023-04-01T13:46:54.717Z,95502.56
2023-04-01T13:49:21.153Z,95499.09
2023-04-01T13:51:47.480Z,95510.16
2023-04-01T13:54:13.764Z,95507.28
2023-04-01T13:56:40.056Z,95514.41
2023-04-01T13:59:06.361Z,95504.50
2023-04-01T14:01:32.710Z,95510.97
2023-04-01T14:03:59.037Z,95549.25
2023-04-01T14:06:25.451Z,95552.28
2023-04-01T14:08:51.738Z,95545.97
2023-04-01T14:11:18.022Z,95544.19
2023-04-01T14:13:44.380Z,95531.63
2023-04-01T14:16:10.701Z,95529.59
2023-04-01T14:18:37.016Z,95513.94
2023-04-01T14:21:03.341Z,95512.41
2023-04-01T14:23:29.633Z,95509.72
2023-04-01T14:25:55.920Z,95505.50
2023-04-01T14:28:22.237Z,95508.84
2023-04-01T14:30:48.532Z,95503.97
2023-04-01T14:33:14.864Z,95502.16
2023-04-01T14:35:41.243Z,95501.28
2023-04-01T14:38:07.540Z,95496.97
2023-04-01T14:40:33.838Z,95509.84
2023-04-01T14:43:00.161Z,95500.72
2023-04-01T14:45:26.463Z,95497.69
2023-04-01T14:47:52.817Z,95498.84
2023-04-01T14:50:19.234Z,95497.03
2023-04-01T14:52:45.527Z,95502.03
2023-04-01T14:55:11.810Z,95495.16
2023-04-01T14:57:38.163Z,95491.72
2023-04-01T15:00:04.484Z,95499.16
2023-04-01T15:02:31.021Z,95493.72
2023-04-01T15:04:57.363Z,95492.69
2023-04-01T15:07:23.682Z,95484.38
2023-04-01T15:09:49.981Z,95484.91
2023-04-01T15:12:16.301Z,95477.38
2023-04-01T15:14:42.595Z,95464.69
2023-04-01T15:17:08.889Z,95463.81
2023-04-01T15:19:35.209Z,95471.06
2023-04-01T15:22:01.516Z,95472.59
2023-04-01T15:24:27.839Z,95469.81
2023-04-01T15:26:54.158Z,95469.69
2023-04-01T15:29:20.464Z,95472.13
2023-04-01T15:31:46.790Z,95480.38
2023-04-01T15:34:13.168Z,95475.34
2023-04-01T15:36:41.427Z,95484.16
2023-04-01T15:39:07.944Z,95489.28
2023-04-01T15:41:34.295Z,95488.38
2023-04-01T15:44:00.578Z,95493.03
2023-04-01T15:46:26.893Z,95485.47
2023-04-01T15:48:53.244Z,95487.25
2023-04-01T15:51:19.522Z,95495.00
2023-04-01T15:53:45.809Z,95487.88
2023-04-01T15:56:12.111Z,95490.47
2023-04-01T15:58:38.394Z,95489.81
2023-04-01T16:01:04.675Z,95487.34
2023-04-01T16:03:31.086Z,95491.56
2023-04-01T16:05:57.518Z,95494.69
2023-04-01T16:08:23.805Z,95483.69
2023-04-01T16:10:50.114Z,95493.25
2023-04-01T16:13:16.408Z,95492.59
2023-04-01T16:15:42.710Z,95492.72
2023-04-01T16:18:09.064Z,95492.81
2023-04-01T16:20:35.576Z,95492.13
2023-04-01T16:23:03.134Z,95506.16
2023-04-01T16:25:29.438Z,95509.53
2023-04-01T16:27:56.478Z,95509.94
2023-04-01T16:30:22.940Z,95508.59
2023-04-01T16:32:49.288Z,95515.50
2023-04-01T16:35:15.595Z,95500.00
2023-04-01T16:37:42.113Z,95504.69
2023-04-01T16:40:08.428Z,95506.38
2023-04-01T16:42:34.731Z,95498.59
2023-04-01T16:45:01.033Z,95503.81
2023-04-01T16:47:27.405Z,95510.50
2023-04-01T16:49:53.736Z,95497.47
2023-04-01T16:52:20.037Z,95507.50
2023-04-01T16:54:46.355Z,95502.84
2023-04-01T16:57:12.675Z,95505.72
2023-04-01T16:59:38.980Z,95505.16
2023-04-01T17:02:05.305Z,95509.28
2023-04-01T17:04:31.624Z,95505.94
2023-04-01T17:06:57.935Z,95508.75
2023-04-01T17:09:24.239Z,95514.28
2023-04-01T17:11:50.529Z,95516.28
2023-04-01T17:14:16.840Z,95519.94
2023-04-01T17:16:43.158Z,95520.06
2023-04-01T17:19:09.445Z,95538.41
2023-04-01T17:21:35.739Z,95547.94
2023-04-01T17:24:02.066Z,95562.41
2023-04-01T17:26:28.371Z,95573.91
2023-04-01T17:28:54.663Z,95575.75
2023-04-01T17:31:21.098Z,95555.69
2023-04-01T17:33:47.408Z,95568.09
2023-04-01T17:36:13.720Z,95566.88
2023-04-01T17:38:40.040Z,95571.97
2023-04-01T17:41:06.333Z,95575.13
2023-04-01T17:43:32.623Z,95567.22
2023-04-01T17:45:58.955Z,95561.84
2023-04-01T17:48:25.254Z,95575.09
2023-04-01T17:50:51.576Z,95582.06
2023-04-01T17:53:17.962Z,95584.97
2023-04-01T17:55:44.247Z,95579.34
2023-04-01T17:58:10.528Z,95590.00
2023-04-01T18:00:50.601Z,95593.81
2023-04-01T18:03:20.210Z,95596.34
2023-04-01T18:05:46.712Z,95605.84
2023-04-01T18:08:12.998Z,95605.63
2023-04-01T18:10:39.291Z,95605.78
2023-04-01T18:13:05.594Z,95610.47
2023-04-01T18:15:31.877Z,95618.28
2023-04-01T18:17:58.201Z,95620.09
2023-04-01T18:20:24.552Z,95624.28
2023-04-01T18:22:50.860Z,95624.16
2023-04-01T18:25:17.171Z,95622.09
2023-04-01T18:27:43.492Z,95622.53
2023-04-01T18:30:09.794Z,95630.41
2023-04-01T18:32:36.119Z,95626.34
2023-04-01T18:35:02.528Z,95631.81
2023-04-01T18:37:28.824Z,95628.41
2023-04-01T18:39:55.131Z,95633.03
2023-04-01T18:42:21.454Z,95644.06
2023-04-01T18:44:47.769Z,95647.66
2023-04-01T18:47:14.067Z,95650.56
2023-04-01T18:49:40.375Z,95648.28
2023-04-01T18:52:06.688Z,95662.53
2023-04-01T18:54:32.996Z,95648.28
2023-04-01T18:56:59.417Z,95654.88
2023-04-01T18:59:25.714Z,95662.50
2023-04-01T19:01:52.001Z,95663.31
2023-04-01T19:04:18.311Z,95662.97
2023-04-01T19:06:44.624Z,95664.41
2023-04-01T19:09:10.935Z,95665.13
2023-04-01T19:11:37.260Z,95666.16
2023-04-01T19:14:03.560Z,95675.78
2023-04-01T19:16:29.856Z,95677.75
2023-04-01T19:18:56.165Z,95685.56
2023-04-01T19:21:22.463Z,95688.84
2023-04-01T19:23:48.764Z,95680.53
2023-04-01T19:26:15.085Z,95676.75
2023-04-01T19:28:41.514Z,95680.03
2023-04-01T19:31:07.829Z,95682.06
2023-04-01T19:33:34.149Z,95681.47
2023-04-01T19:36:00.465Z,95697.19
2023-04-01T19:38:26.793Z,95687.97
2023-04-01T19:40:53.105Z,95695.34
2023-04-01T19:43:19.406Z,95691.06
2023-04-01T19:45:45.699Z,95694.41
2023-04-01T19:48:12.036Z,95694.84
2023-04-01T19:50:38.340Z,95695.22
2023-04-01T19:53:04.643Z,95704.94
2023-04-01T19:55:30.994Z,95703.03
2023-04-01T19:57:57.340Z,95706.19
2023-04-01T20:00:23.777Z,95710.91
2023-04-01T20:02:50.399Z,95708.44
2023-04-01T20:05:16.822Z,95712.72
2023-04-01T20:07:43.187Z,95716.88
2023-04-01T20:10:09.491Z,95726.44
2023-04-01T20:12:35.819Z,95736.59
2023-04-01T20:15:02.129Z,95729.31
2023-04-01T20:17:28.486Z,95726.88
2023-04-01T20:19:54.865Z,95736.34
2023-04-01T20:22:21.157Z,95733.31
2023-04-01T20:24:47.477Z,95730.09
2023-04-01T20:27:13.937Z,95730.53
2023-04-01T20:29:40.230Z,95722.53
2023-04-01T20:32:06.594Z,95724.19
2023-04-01T20:34:32.928Z,95728.34
2023-04-01T20:36:59.248Z,95730.38
2023-04-01T20:39:25.577Z,95731.88
2023-04-01T20:41:51.877Z,95730.25
2023-04-01T20:44:18.161Z,95730.88
2023-04-01T20:46:46.192Z,95734.75
2023-04-01T20:49:13.188Z,95744.19
2023-04-01T20:51:39.488Z,95732.84
2023-04-01T20:54:05.808Z,95731.50
2023-04-01T20:56:32.115Z,95733.13
2023-04-01T20:58:58.395Z,95731.34
2023-04-01T21:01:24.718Z,95725.56
2023-04-01T21:03:51.040Z,95736.84
2023-04-01T21:06:17.331Z,95738.31
2023-04-01T21:08:43.747Z,95744.66
2023-04-01T21:11:10.114Z,95740.69
2023-04-01T21:13:36.475Z,95743.81
2023-04-01T21:16:02.896Z,95743.88
2023-04-01T21:18:29.335Z,95734.41
2023-04-01T21:20:55.704Z,95737.25
2023-04-01T21:23:22.096Z,95738.25
2023-04-01T21:25:48.471Z,95752.03
2023-04-01T21:28:14.857Z,95746.03
2023-04-01T21:30:41.247Z,95753.41
2023-04-01T21:33:07.744Z,95751.41
2023-04-01T21:35:34.446Z,95748.97
2023-04-01T21:38:01.032Z,95758.28
2023-04-01T21:40:30.204Z,95761.56
2023-04-01T21:42:56.571Z,95765.44
2023-04-01T21:45:22.952Z,95762.47
2023-04-01T21:47:49.332Z,95762.81
2023-04-01T21:50:15.822Z,95761.84
2023-04-01T21:52:42.204Z,95762.22
2023-04-01T21:55:08.586Z,95759.47
2023-04-01T21:57:36.125Z,95766.78
2023-04-01T22:00:03.733Z,95768.50
2023-04-01T22:02:30.133Z,95765.53
2023-04-01T22:04:56.645Z,95767.22
2023-04-01T22:07:23.042Z,95760.81
2023-04-01T22:09:49.423Z,95771.41
2023-04-01T22:12:15.821Z,95774.63
2023-04-01T22:14:42.268Z,95783.38
2023-04-01T22:17:08.629Z,95790.78
2023-04-01T22:19:35.008Z,95792.59
2023-04-01T22:22:01.417Z,95785.84
2023-04-01T22:24:27.800Z,95790.81
2023-04-01T22:26:54.177Z,95800.69
2023-04-01T22:29:20.579Z,95792.97
2023-04-01T22:31:46.980Z,95785.13
2023-04-01T22:34:13.402Z,95790.47
2023-04-01T22:36:39.783Z,95791.13
2023-04-01T22:39:06.146Z,95790.03
2023-04-01T22:41:32.507Z,95798.84
2023-04-01T22:44:00.080Z,95796.94
2023-04-01T22:46:26.506Z,95800.06
2023-04-01T22:48:52.945Z,95801.16
2023-04-01T22:51:19.476Z,95797.00
2023-04-01T22:53:45.868Z,95802.41
2023-04-01T22:56:12.238Z,95803.22
2023-04-01T22:58:38.633Z,95806.25
2023-04-01T23:01:05.030Z,95804.63
2023-04-01T23:03:31.440Z,95814.16
2023-04-01T23:05:57.844Z,95810.81
2023-04-01T23:08:24.220Z,95800.06
2023-04-01T23:10:50.612Z,95804.34
2023-04-01T23:13:17.008Z,95804.66
2023-04-01T23:15:43.401Z,95805.34
2023-04-01T23:18:09.805Z,95801.44
2023-04-01T23:20:36.292Z,95811.03
2023-04-01T23:23:02.662Z,95806.97
2023-04-01T23:25:29.044Z,95817.13
2023-04-01T23:27:55.502Z,95815.44
2023-04-01T23:30:21.872Z,95808.75
2023-04-01T23:32:48.310Z,95814.09
2023-04-01T23:35:14.694Z,95815.09
2023-04-01T23:37:41.064Z,95821.19
2023-04-01T23:40:07.426Z,95823.97
2023-04-01T23:42:33.896Z,95823.13
2023-04-01T23:45:00.275Z,95819.19
2023-04-01T23:47:26.688Z,95825.38
2023-04-01T23:49:53.116Z,95820.84
2023-04-01T23:52:19.492Z,95822.50
2023-04-01T23:54:45.890Z,95826.59
2023-04-01T23:57:12.359Z,95823.13
2023-04-01T23:59:38.759Z,95823.56
